Time;durP1;ratioP1;P1;durP2;ratioP2;P2;SDS_P1;SDS_P2;PMS_P1;PMS_P2;Temp;Humidity;BMP_temperature;BMP_pressure;BME280_temperature;BME280_humidity;BME280_pressure;Samples;Min_cycle;Max_cycle;Signal;HPM_P1;HPM_P2
2021/09/09 00:00:00;;;;;;;5.25;2.90;;;;;;;;;;2082165;28;20029;-84
2021/09/09 00:01:19;;;;;;;3.22;3.03;;;;;;;;;;2081192;28;20029;-84
2021/09/09 00:02:38;;;;;;;6.10;2.78;;;;;;;;;;2074985;28;20060;-83
2021/09/09 00:03:57;;;;;;;3.85;2.80;;;;;;;;;;2078693;28;20033;-84
2021/09/09 00:05:16;;;;;;;2.70;2.50;;;;;;;;;;2080750;28;20033;-84
2021/09/09 00:06:34;;;;;;;4.00;2.92;;;;;;;;;;2082747;28;20021;-84
2021/09/09 00:07:56;;;;;;;4.53;2.88;;;;;;;;;;2083712;28;20029;-83
2021/09/09 00:09:16;;;;;;;3.13;2.83;;;;;;;;;;2083599;28;20033;-82
2021/09/09 00:10:35;;;;;;;4.32;3.13;;;;;;;;;;2075378;28;20557;-84
2021/09/09 00:11:54;;;;;;;3.25;2.95;;;;;;;;;;2085853;28;20108;-82
2021/09/09 00:13:13;;;;;;;9.25;2.60;;;;;;;;;;2083484;28;20025;-84
2021/09/09 00:14:32;;;;;;;6.63;2.47;;;;;;;;;;2081199;28;20029;-83
2021/09/09 00:15:51;;;;;;;4.85;2.45;;;;;;;;;;2080567;28;20025;-84
2021/09/09 00:17:09;;;;;;;4.90;2.58;;;;;;;;;;2079574;28;20108;-84
2021/09/09 00:18:28;;;;;;;5.10;2.90;;;;;;;;;;2083567;28;20025;-84
2021/09/09 00:19:47;;;;;;;3.83;2.75;;;;;;;;;;2078889;28;20056;-84
2021/09/09 00:21:06;;;;;;;3.47;2.45;;;;;;;;;;2076240;28;20037;-85
2021/09/09 00:22:25;;;;;;;3.85;2.80;;;;;;;;;;2081475;28;20358;-83
2021/09/09 00:23:44;;;;;;;5.60;3.20;;;;;;;;;;2081506;28;20033;-84
2021/09/09 00:25:03;;;;;;;3.45;2.90;;;;;;;;;;2083405;28;20057;-84
2021/09/09 00:26:22;;;;;;;3.83;2.55;;;;;;;;;;2085989;28;20029;-85
2021/09/09 00:27:41;;;;;;;4.95;2.90;;;;;;;;;;2076901;28;20038;-83
2021/09/09 00:29:00;;;;;;;4.22;2.70;;;;;;;;;;2085282;28;20028;-84
2021/09/09 00:30:19;;;;;;;4.75;3.15;;;;;;;;;;2086008;28;20041;-84
2021/09/09 00:31:38;;;;;;;3.55;3.00;;;;;;;;;;2081595;28;20072;-84
2021/09/09 00:32:57;;;;;;;3.88;3.38;;;;;;;;;;2083185;28;20025;-83
2021/09/09 00:34:16;;;;;;;6.03;2.92;;;;;;;;;;2079626;28;20037;-83
2021/09/09 00:35:35;;;;;;;6.35;3.30;;;;;;;;;;2079298;28;20014;-83
2021/09/09 00:36:54;;;;;;;3.17;2.88;;;;;;;;;;2081648;28;20552;-84
2021/09/09 00:38:12;;;;;;;6.13;3.33;;;;;;;;;;2079911;28;20494;-82
2021/09/09 00:39:31;;;;;;;5.00;2.80;;;;;;;;;;2081849;28;20030;-83
2021/09/09 00:40:50;;;;;;;5.45;2.70;;;;;;;;;;2083405;28;20105;-83
2021/09/09 00:42:08;;;;;;;3.50;3.15;;;;;;;;;;2080294;28;20154;-84
2021/09/09 00:43:27;;;;;;;3.55;3.10;;;;;;;;;;2076990;28;20505;-83
2021/09/09 00:44:46;;;;;;;2.95;2.67;;;;;;;;;;2079132;28;20029;-83
2021/09/09 00:46:05;;;;;;;3.17;2.67;;;;;;;;;;2080983;28;20030;-84
2021/09/09 00:47:25;;;;;;;7.78;3.10;;;;;;;;;;2089010;28;20385;-83
2021/09/09 00:48:44;;;;;;;5.10;3.03;;;;;;;;;;2080624;28;20163;-84
2021/09/09 00:50:03;;;;;;;3.10;2.80;;;;;;;;;;2082219;28;20972;-83
2021/09/09 00:51:22;;;;;;;3.10;2.80;;;;;;;;;;2078412;28;20469;-82
2021/09/09 00:52:44;;;;;;;13.60;3.38;;;;;;;;;;2079149;28;20029;-83
2021/09/09 00:54:03;;;;;;;4.32;2.60;;;;;;;;;;2075803;28;20034;-83
2021/09/09 00:55:22;;;;;;;2.95;2.63;;;;;;;;;;2092533;28;20033;-85
2021/09/09 00:56:41;;;;;;;3.33;3.03;;;;;;;;;;2083539;28;20017;-83
2021/09/09 00:58:00;;;;;;;5.63;2.80;;;;;;;;;;2081711;28;20025;-84
2021/09/09 00:59:18;;;;;;;4.55;2.95;;;;;;;;;;2081901;28;20427;-84
2021/09/09 01:00:38;;;;;;;3.67;2.85;;;;;;;;;;2082558;28;20053;-84
2021/09/09 01:01:56;;;;;;;4.60;3.17;;;;;;;;;;2090956;28;20025;-84
2021/09/09 01:03:15;;;;;;;2.90;2.60;;;;;;;;;;2081643;28;20033;-84
2021/09/09 01:04:34;;;;;;;2.97;2.70;;;;;;;;;;2079084;28;20030;-84
2021/09/09 01:05:52;;;;;;;4.82;3.03;;;;;;;;;;2081501;28;20029;-83
2021/09/09 01:07:11;;;;;;;3.15;2.95;;;;;;;;;;2081968;28;20025;-84
2021/09/09 01:08:31;;;;;;;6.03;3.10;;;;;;;;;;2083048;28;20033;-84
2021/09/09 01:09:49;;;;;;;3.38;3.08;;;;;;;;;;2077867;28;20112;-84
2021/09/09 01:11:09;;;;;;;3.63;3.17;;;;;;;;;;2082774;28;20029;-84
2021/09/09 01:12:27;;;;;;;3.65;2.80;;;;;;;;;;2079470;28;20021;-84
2021/09/09 01:13:50;;;;;;;4.13;3.15;;;;;;;;;;2079214;28;20048;-84
2021/09/09 01:15:09;;;;;;;3.58;3.10;;;;;;;;;;2082825;28;20029;-84
2021/09/09 01:16:28;;;;;;;6.22;3.22;;;;;;;;;;2075781;28;20065;-84
2021/09/09 01:17:47;;;;;;;3.53;3.22;;;;;;;;;;2080978;28;20034;-83
2021/09/09 01:19:07;;;;;;;5.00;3.10;;;;;;;;;;2083060;28;20500;-84
2021/09/09 01:20:26;;;;;;;3.05;2.75;;;;;;;;;;2091212;28;20060;-83
2021/09/09 01:21:44;;;;;;;3.28;3.03;;;;;;;;;;2082691;28;20112;-84
2021/09/09 01:23:04;;;;;;;3.55;3.08;;;;;;;;;;2079659;28;20026;-82
2021/09/09 01:24:23;;;;;;;4.43;3.03;;;;;;;;;;2082700;28;20108;-84
2021/09/09 01:25:42;;;;;;;2.80;2.60;;;;;;;;;;2078905;28;20057;-83
2021/09/09 01:27:05;;;;;;;3.28;2.97;;;;;;;;;;2082549;28;20034;-84
2021/09/09 01:28:24;;;;;;;4.15;3.03;;;;;;;;;;2079537;28;20120;-84
2021/09/09 01:29:43;;;;;;;3.92;2.92;;;;;;;;;;2081466;28;20064;-84
2021/09/09 01:31:02;;;;;;;3.78;3.40;;;;;;;;;;2079850;28;20460;-84
2021/09/09 01:32:21;;;;;;;4.43;3.03;;;;;;;;;;2077132;28;20026;-83
2021/09/09 01:33:40;;;;;;;4.07;3.05;;;;;;;;;;2079585;28;20018;-84
2021/09/09 01:34:59;;;;;;;3.17;2.95;;;;;;;;;;2082745;28;20486;-83
2021/09/09 01:36:18;;;;;;;3.67;3.38;;;;;;;;;;2083106;28;20030;-83
2021/09/09 01:37:37;;;;;;;6.68;3.30;;;;;;;;;;2079281;28;20109;-85
2021/09/09 01:38:56;;;;;;;5.65;3.50;;;;;;;;;;2094191;28;20024;-84
2021/09/09 01:40:15;;;;;;;6.63;3.00;;;;;;;;;;2088717;28;20037;-84
2021/09/09 01:41:34;;;;;;;3.80;3.17;;;;;;;;;;2078743;28;20478;-84
2021/09/09 01:42:53;;;;;;;4.85;2.97;;;;;;;;;;2079120;28;20412;-84
2021/09/09 01:44:12;;;;;;;3.33;3.03;;;;;;;;;;2081824;28;20037;-85
2021/09/09 01:45:31;;;;;;;3.25;2.97;;;;;;;;;;2080639;28;20029;-84
2021/09/09 01:46:50;;;;;;;3.05;2.85;;;;;;;;;;2078310;28;20029;-83
2021/09/09 01:48:09;;;;;;;4.90;3.70;;;;;;;;;;2079320;28;20033;-85
2021/09/09 01:49:28;;;;;;;3.67;3.38;;;;;;;;;;2081942;28;20025;-84
2021/09/09 01:50:47;;;;;;;3.55;3.25;;;;;;;;;;2089770;28;20108;-85
2021/09/09 01:52:06;;;;;;;3.55;3.25;;;;;;;;;;2080550;28;20018;-85
2021/09/09 01:53:25;;;;;;;5.03;2.90;;;;;;;;;;2077196;28;20034;-84
2021/09/09 01:54:44;;;;;;;5.63;3.78;;;;;;;;;;2084731;28;20102;-84
2021/09/09 01:56:03;;;;;;;3.40;3.08;;;;;;;;;;2085617;28;20481;-85
2021/09/09 01:57:22;;;;;;;3.35;3.10;;;;;;;;;;2083222;28;20477;-83
2021/09/09 01:58:41;;;;;;;3.35;3.05;;;;;;;;;;2095551;28;20017;-84
2021/09/09 02:00:04;;;;;;;3.50;3.20;;;;;;;;;;2085419;28;20017;-85
2021/09/09 02:01:23;;;;;;;4.82;3.28;;;;;;;;;;2082122;28;20033;-84
2021/09/09 02:02:42;;;;;;;6.40;3.45;;;;;;;;;;2078861;28;20033;-85
2021/09/09 02:04:01;;;;;;;3.80;3.45;;;;;;;;;;2078308;28;20108;-84
2021/09/09 02:05:20;;;;;;;3.95;3.25;;;;;;;;;;2081889;28;20029;-85
2021/09/09 02:06:39;;;;;;;4.35;3.40;;;;;;;;;;2078843;28;20030;-85
2021/09/09 02:07:58;;;;;;;4.63;3.88;;;;;;;;;;2079426;28;20084;-84
2021/09/09 02:09:17;;;;;;;3.92;3.50;;;;;;;;;;2079453;28;20030;-84
2021/09/09 02:10:36;;;;;;;3.90;3.60;;;;;;;;;;2078985;28;20037;-84
2021/09/09 02:11:55;;;;;;;3.40;3.10;;;;;;;;;;2085506;28;20076;-83
2021/09/09 02:13:15;;;;;;;4.57;4.10;;;;;;;;;;2082404;28;20021;-85
2021/09/09 02:14:34;;;;;;;3.70;3.40;;;;;;;;;;2082578;28;20092;-84
2021/09/09 02:15:53;;;;;;;3.33;3.13;;;;;;;;;;2078181;28;20021;-84
2021/09/09 02:17:12;;;;;;;4.38;3.35;;;;;;;;;;2075609;28;20021;-85
2021/09/09 02:18:31;;;;;;;3.90;3.60;;;;;;;;;;2079468;28;20026;-84
2021/09/09 02:19:50;;;;;;;4.15;3.38;;;;;;;;;;2083971;28;20390;-84
2021/09/09 02:21:08;;;;;;;3.75;3.42;;;;;;;;;;2081558;28;20405;-85
2021/09/09 02:22:27;;;;;;;3.83;3.42;;;;;;;;;;2077127;28;20025;-85
2021/09/09 02:23:46;;;;;;;5.25;3.70;;;;;;;;;;2079258;28;20389;-85
2021/09/09 02:25:06;;;;;;;4.00;3.45;;;;;;;;;;2084778;28;20049;-84
2021/09/09 02:26:24;;;;;;;4.00;3.60;;;;;;;;;;2079376;28;20029;-84
2021/09/09 02:27:44;;;;;;;4.00;3.53;;;;;;;;;;2080354;28;20108;-85
2021/09/09 02:29:03;;;;;;;3.95;3.65;;;;;;;;;;2085114;28;20051;-85
2021/09/09 02:30:21;;;;;;;6.00;4.15;;;;;;;;;;2077199;28;20025;-84
2021/09/09 02:31:40;;;;;;;4.93;3.67;;;;;;;;;;2081766;28;20021;-83
2021/09/09 02:32:59;;;;;;;3.70;3.40;;;;;;;;;;2082785;28;20022;-84
2021/09/09 02:34:18;;;;;;;6.80;3.90;;;;;;;;;;2082720;28;20026;-85
2021/09/09 02:35:37;;;;;;;4.55;3.60;;;;;;;;;;2083924;28;20029;-84
2021/09/09 02:37:16;;;;;;;4.13;3.83;;;;;;;;;;2082786;28;20056;-83
2021/09/09 02:38:35;;;;;;;4.57;3.80;;;;;;;;;;2081860;28;20061;-85
2021/09/09 02:39:54;;;;;;;5.43;3.80;;;;;;;;;;2078112;28;20025;-83
2021/09/09 02:41:13;;;;;;;5.07;4.00;;;;;;;;;;2076743;28;20034;-84
2021/09/09 02:42:33;;;;;;;4.13;3.72;;;;;;;;;;2073275;28;20030;-84
2021/09/09 02:43:51;;;;;;;3.92;3.60;;;;;;;;;;2084248;28;20531;-84
2021/09/09 02:45:11;;;;;;;4.78;3.92;;;;;;;;;;2079450;28;20033;-84
2021/09/09 02:46:30;;;;;;;6.43;3.83;;;;;;;;;;2081755;28;20061;-84
2021/09/09 02:47:49;;;;;;;5.40;3.78;;;;;;;;;;2084672;28;20013;-85
2021/09/09 02:49:07;;;;;;;6.68;3.75;;;;;;;;;;2087831;28;20455;-84
2021/09/09 02:50:27;;;;;;;5.72;3.80;;;;;;;;;;2086187;28;20033;-84
2021/09/09 02:51:45;;;;;;;8.38;3.28;;;;;;;;;;2080336;28;20493;-84
2021/09/09 02:53:04;;;;;;;3.83;3.53;;;;;;;;;;2080122;28;20026;-84
2021/09/09 02:54:23;;;;;;;8.35;4.18;;;;;;;;;;2082642;28;20028;-83
2021/09/09 02:55:42;;;;;;;4.68;4.28;;;;;;;;;;2077727;28;20025;-84
2021/09/09 02:57:00;;;;;;;8.32;4.13;;;;;;;;;;2078563;28;20022;-85
2021/09/09 02:58:19;;;;;;;7.20;4.30;;;;;;;;;;2079170;28;20029;-84
2021/09/09 02:59:38;;;;;;;3.72;3.42;;;;;;;;;;2079763;28;20017;-84
2021/09/09 03:00:57;;;;;;;3.92;3.63;;;;;;;;;;2079837;28;20029;-84
2021/09/09 03:02:16;;;;;;;5.65;4.00;;;;;;;;;;2075139;28;20053;-85
2021/09/09 03:03:34;;;;;;;7.05;4.25;;;;;;;;;;2079151;28;20433;-83
2021/09/09 03:04:53;;;;;;;4.70;3.78;;;;;;;;;;2077136;28;20029;-84
2021/09/09 03:06:12;;;;;;;6.68;4.10;;;;;;;;;;2077878;28;20053;-84
2021/09/09 03:07:31;;;;;;;4.63;3.60;;;;;;;;;;2075606;28;20025;-82
2021/09/09 03:08:49;;;;;;;4.28;3.88;;;;;;;;;;2079733;28;20053;-84
2021/09/09 03:10:09;;;;;;;7.43;3.70;;;;;;;;;;2078116;28;20021;-84
2021/09/09 03:11:27;;;;;;;6.50;4.00;;;;;;;;;;2073397;28;20017;-85
2021/09/09 03:12:46;;;;;;;5.47;4.13;;;;;;;;;;2076124;28;20450;-84
2021/09/09 03:14:05;;;;;;;3.92;3.63;;;;;;;;;;2082794;28;20021;-84
2021/09/09 03:15:24;;;;;;;4.47;3.85;;;;;;;;;;2079751;28;20021;-82
2021/09/09 03:16:43;;;;;;;5.15;4.07;;;;;;;;;;2088879;28;20070;-84
2021/09/09 03:18:02;;;;;;;3.95;3.65;;;;;;;;;;2079089;28;20041;-84
2021/09/09 03:19:21;;;;;;;6.05;4.15;;;;;;;;;;2088489;28;20021;-84
2021/09/09 03:20:40;;;;;;;5.35;4.57;;;;;;;;;;2082401;28;20029;-84
2021/09/09 03:21:59;;;;;;;4.15;3.63;;;;;;;;;;2079829;28;20112;-84
2021/09/09 03:23:18;;;;;;;4.55;4.15;;;;;;;;;;2079820;28;20116;-84
2021/09/09 03:24:37;;;;;;;9.10;4.57;;;;;;;;;;2081822;28;20470;-84
2021/09/09 03:25:57;;;;;;;5.47;4.05;;;;;;;;;;2077195;28;20080;-84
2021/09/09 03:27:15;;;;;;;5.13;4.72;;;;;;;;;;2079429;28;20021;-85
2021/09/09 03:28:34;;;;;;;5.03;4.20;;;;;;;;;;2076016;28;20018;-85
2021/09/09 03:29:53;;;;;;;5.55;3.85;;;;;;;;;;2081149;28;20294;-82
2021/09/09 03:31:12;;;;;;;5.00;3.50;;;;;;;;;;2081240;28;20025;-84
2021/09/09 03:32:31;;;;;;;5.72;4.30;;;;;;;;;;2079642;28;20021;-85
2021/09/09 03:33:50;;;;;;;6.38;4.18;;;;;;;;;;2078725;28;20025;-85
2021/09/09 03:35:09;;;;;;;5.43;4.40;;;;;;;;;;2079445;28;20034;-85
2021/09/09 03:36:28;;;;;;;4.82;4.40;;;;;;;;;;2080024;28;20029;-85
2021/09/09 03:37:47;;;;;;;6.97;4.20;;;;;;;;;;2081844;28;20481;-84
2021/09/09 03:39:06;;;;;;;4.50;3.88;;;;;;;;;;2078249;28;20033;-84
2021/09/09 03:40:25;;;;;;;6.32;4.57;;;;;;;;;;2078890;28;20096;-84
2021/09/09 03:41:44;;;;;;;4.90;4.40;;;;;;;;;;2078501;28;20038;-84
2021/09/09 03:43:03;;;;;;;5.82;4.22;;;;;;;;;;2077535;28;20029;-85
2021/09/09 03:44:22;;;;;;;6.03;4.68;;;;;;;;;;2080523;28;20025;-84
2021/09/09 03:45:41;;;;;;;5.65;4.40;;;;;;;;;;2082309;28;20408;-84
2021/09/09 03:47:00;;;;;;;5.57;4.38;;;;;;;;;;2080322;28;20037;-84
2021/09/09 03:48:19;;;;;;;6.15;4.28;;;;;;;;;;2076685;28;20038;-83
2021/09/09 03:49:37;;;;;;;4.97;4.43;;;;;;;;;;2076202;28;20034;-84
2021/09/09 03:50:56;;;;;;;4.95;4.55;;;;;;;;;;2079083;28;20025;-84
2021/09/09 03:52:15;;;;;;;7.32;4.82;;;;;;;;;;2079231;28;20112;-83
2021/09/09 03:53:33;;;;;;;6.68;4.50;;;;;;;;;;2081435;28;20029;-84
2021/09/09 03:54:52;;;;;;;5.63;4.85;;;;;;;;;;2081044;28;20026;-84
2021/09/09 03:56:11;;;;;;;6.60;4.43;;;;;;;;;;2078554;28;20033;-83
2021/09/09 03:57:30;;;;;;;5.10;4.70;;;;;;;;;;2082546;28;20022;-84
2021/09/09 03:58:49;;;;;;;5.35;4.95;;;;;;;;;;2084927;28;20013;-82
2021/09/09 04:00:08;;;;;;;6.38;5.00;;;;;;;;;;2087396;28;20021;-83
2021/09/09 04:01:27;;;;;;;7.68;4.72;;;;;;;;;;2079096;28;20029;-83
2021/09/09 04:02:46;;;;;;;6.68;4.75;;;;;;;;;;2075993;28;20052;-83
2021/09/09 04:04:05;;;;;;;5.38;4.35;;;;;;;;;;2081298;28;20100;-83
2021/09/09 04:05:24;;;;;;;5.90;4.93;;;;;;;;;;2080210;28;20412;-83
2021/09/09 04:06:43;;;;;;;5.00;4.50;;;;;;;;;;2079855;28;20462;-82
2021/09/09 04:08:02;;;;;;;5.15;4.72;;;;;;;;;;2075529;28;20030;-83
2021/09/09 04:09:21;;;;;;;7.00;5.13;;;;;;;;;;2086871;28;20029;-82
2021/09/09 04:10:39;;;;;;;6.97;4.90;;;;;;;;;;2084699;28;20021;-83
2021/09/09 04:11:58;;;;;;;5.93;5.25;;;;;;;;;;2081835;28;20029;-84
2021/09/09 04:13:17;;;;;;;7.85;5.05;;;;;;;;;;2074590;28;20033;-83
2021/09/09 04:14:36;;;;;;;8.13;5.05;;;;;;;;;;2078415;28;20017;-84
2021/09/09 04:15:55;;;;;;;6.22;5.35;;;;;;;;;;2080718;28;20022;-83
2021/09/09 04:17:13;;;;;;;6.75;5.45;;;;;;;;;;2081201;28;20104;-84
2021/09/09 04:18:32;;;;;;;4.85;4.38;;;;;;;;;;2077411;28;20034;-83
2021/09/09 04:19:51;;;;;;;7.65;5.65;;;;;;;;;;2082544;28;20044;-83
2021/09/09 04:21:09;;;;;;;5.78;5.15;;;;;;;;;;2081191;28;20061;-84
2021/09/09 04:22:28;;;;;;;6.07;5.32;;;;;;;;;;2077681;28;20021;-83
2021/09/09 04:23:47;;;;;;;7.65;5.57;;;;;;;;;;2080523;28;20089;-83
2021/09/09 04:25:06;;;;;;;5.68;4.70;;;;;;;;;;2079164;28;20042;-83
2021/09/09 04:26:25;;;;;;;8.13;5.32;;;;;;;;;;2080460;28;20042;-83
2021/09/09 04:27:44;;;;;;;5.63;5.00;;;;;;;;;;2080309;28;20026;-83
2021/09/09 04:29:03;;;;;;;5.65;4.88;;;;;;;;;;2076754;28;20045;-84
2021/09/09 04:30:22;;;;;;;6.18;5.28;;;;;;;;;;2079610;28;20026;-83
2021/09/09 04:31:41;;;;;;;6.85;5.38;;;;;;;;;;2078216;28;20022;-85
2021/09/09 04:33:00;;;;;;;6.47;5.00;;;;;;;;;;2079972;28;20030;-84
2021/09/09 04:34:19;;;;;;;7.75;5.47;;;;;;;;;;2071147;28;20034;-82
2021/09/09 04:37:45;;;;;;;6.18;4.85;;;;;;;;;;2071573;28;20034;-83
2021/09/09 04:39:04;;;;;;;9.85;5.05;;;;;;;;;;2078102;28;20022;-83
2021/09/09 04:40:22;;;;;;;8.35;5.65;;;;;;;;;;2086322;28;20068;-85
2021/09/09 04:41:41;;;;;;;8.07;5.22;;;;;;;;;;2086012;28;20029;-83
2021/09/09 04:43:22;;;;;;;9.60;5.97;;;;;;;;;;2087320;28;20029;-86
2021/09/09 04:44:47;;;;;;;7.32;5.45;;;;;;;;;;2079562;28;20069;-83
2021/09/09 04:46:12;;;;;;;7.15;5.18;;;;;;;;;;2078386;28;20025;-84
2021/09/09 04:47:37;;;;;;;9.43;5.53;;;;;;;;;;2080238;28;20025;-82
2021/09/09 04:48:56;;;;;;;6.07;5.50;;;;;;;;;;2085207;28;20524;-84
2021/09/09 04:50:15;;;;;;;6.68;6.07;;;;;;;;;;2080898;28;20037;-83
2021/09/09 04:51:34;;;;;;;7.07;5.60;;;;;;;;;;2081562;28;20093;-84
2021/09/09 04:52:53;;;;;;;7.57;5.80;;;;;;;;;;2077414;28;20026;-85
2021/09/09 04:54:12;;;;;;;7.50;5.20;;;;;;;;;;2074351;28;20493;-85
2021/09/09 04:55:31;;;;;;;6.30;5.22;;;;;;;;;;2079917;28;20541;-85
2021/09/09 04:56:50;;;;;;;5.72;5.22;;;;;;;;;;2080324;28;20017;-85
2021/09/09 04:58:10;;;;;;;6.20;5.20;;;;;;;;;;2079623;28;20444;-85
2021/09/09 04:59:29;;;;;;;8.63;5.93;;;;;;;;;;2082875;28;20053;-84
2021/09/09 05:00:49;;;;;;;6.40;5.32;;;;;;;;;;2085642;28;20033;-85
2021/09/09 05:02:11;;;;;;;10.75;6.10;;;;;;;;;;2089283;28;20025;-83
2021/09/09 05:03:33;;;;;;;8.70;5.93;;;;;;;;;;2086607;28;20037;-86
2021/09/09 05:04:52;;;;;;;7.57;6.25;;;;;;;;;;2080447;28;20022;-86
2021/09/09 05:06:11;;;;;;;8.07;5.95;;;;;;;;;;2080054;28;20474;-82
2021/09/09 05:07:30;;;;;;;10.95;6.93;;;;;;;;;;2082557;28;20026;-84
2021/09/09 05:08:49;;;;;;;7.32;6.57;;;;;;;;;;2087389;28;20025;-85
2021/09/09 05:10:17;;;;;;;6.55;5.82;;;;;;;;;;2083866;28;20069;-86
2021/09/09 05:11:38;;;;;;;7.68;5.80;;;;;;;;;;2078062;28;20022;-87
2021/09/09 05:12:57;;;;;;;7.47;6.07;;;;;;;;;;2081086;28;20029;-86
2021/09/09 05:14:15;;;;;;;6.10;5.55;;;;;;;;;;2077217;28;20026;-80
2021/09/09 05:15:35;;;;;;;7.07;6.38;;;;;;;;;;2076459;28;20065;-87
2021/09/09 05:16:54;;;;;;;9.18;6.07;;;;;;;;;;2075677;28;20022;-85
2021/09/09 05:18:12;;;;;;;9.73;5.80;;;;;;;;;;2083288;28;20037;-86
2021/09/09 05:19:32;;;;;;;10.15;6.22;;;;;;;;;;2086132;28;20029;-83
2021/09/09 05:20:50;;;;;;;8.50;5.85;;;;;;;;;;2078503;28;20088;-86
2021/09/09 05:22:09;;;;;;;7.57;6.10;;;;;;;;;;2079538;28;20405;-82
2021/09/09 05:23:28;;;;;;;6.85;6.10;;;;;;;;;;2092855;28;20028;-84
2021/09/09 05:24:47;;;;;;;7.65;6.32;;;;;;;;;;2081026;28;20496;-84
2021/09/09 05:26:06;;;;;;;12.23;5.93;;;;;;;;;;2068692;28;20039;-86
2021/09/09 05:27:24;;;;;;;8.60;6.45;;;;;;;;;;2068992;28;20030;-86
2021/09/09 05:28:43;;;;;;;11.10;6.10;;;;;;;;;;2073088;28;20041;-85
2021/09/09 05:30:02;;;;;;;7.18;5.55;;;;;;;;;;2068792;28;20026;-82
2021/09/09 05:31:21;;;;;;;8.00;7.10;;;;;;;;;;2072899;28;20456;-86
2021/09/09 05:32:40;;;;;;;11.13;5.85;;;;;;;;;;2074673;28;20033;-87
2021/09/09 05:33:59;;;;;;;7.35;6.65;;;;;;;;;;2075547;28;20021;-85
2021/09/09 05:35:25;;;;;;;6.78;5.78;;;;;;;;;;2073662;28;20034;-86
2021/09/09 05:36:44;;;;;;;7.38;6.00;;;;;;;;;;2076387;28;20443;-85
2021/09/09 05:38:07;;;;;;;6.78;6.00;;;;;;;;;;2073135;28;20081;-85
2021/09/09 05:39:26;;;;;;;6.80;5.82;;;;;;;;;;2074025;28;20033;-86
2021/09/09 05:40:44;;;;;;;8.60;6.72;;;;;;;;;;2075879;28;20022;-87
2021/09/09 05:42:03;;;;;;;9.38;6.32;;;;;;;;;;2076183;28;20034;-85
2021/09/09 05:43:25;;;;;;;8.98;6.85;;;;;;;;;;2073800;28;20494;-86
2021/09/09 05:44:44;;;;;;;8.43;6.53;;;;;;;;;;2073799;28;20117;-86
2021/09/09 05:46:02;;;;;;;7.93;6.82;;;;;;;;;;2068561;28;20030;-86
2021/09/09 05:47:21;;;;;;;9.02;6.85;;;;;;;;;;2073898;28;20034;-86
2021/09/09 05:48:40;;;;;;;13.77;7.07;;;;;;;;;;2080899;28;20017;-85
2021/09/09 05:49:59;;;;;;;9.80;7.05;;;;;;;;;;2080157;28;20061;-86
2021/09/09 05:51:18;;;;;;;7.40;6.57;;;;;;;;;;2074611;28;20514;-87
2021/09/09 05:52:37;;;;;;;10.35;7.20;;;;;;;;;;2069084;28;20030;-84
2021/09/09 05:53:56;;;;;;;10.90;8.13;;;;;;;;;;2075686;28;20030;-83
2021/09/09 05:55:15;;;;;;;8.18;6.82;;;;;;;;;;2073850;28;20026;-84
2021/09/09 05:56:34;;;;;;;7.15;6.50;;;;;;;;;;2072832;28;20022;-82
2021/09/09 05:57:53;;;;;;;8.13;6.47;;;;;;;;;;2074863;28;20023;-83
2021/09/09 05:59:12;;;;;;;7.90;7.05;;;;;;;;;;2073657;28;20105;-83
2021/09/09 06:00:31;;;;;;;11.80;6.75;;;;;;;;;;2072713;28;20104;-83
2021/09/09 06:01:50;;;;;;;8.15;6.75;;;;;;;;;;2072300;28;20057;-83
2021/09/09 06:03:09;;;;;;;9.68;7.25;;;;;;;;;;2070993;28;20509;-82
2021/09/09 06:04:33;;;;;;;9.07;7.25;;;;;;;;;;2075873;28;20034;-80
2021/09/09 06:06:01;;;;;;;9.85;7.32;;;;;;;;;;2071341;28;20057;-82
2021/09/09 06:07:21;;;;;;;10.85;7.95;;;;;;;;;;2075681;28;20056;-82
2021/09/09 06:08:40;;;;;;;12.63;8.45;;;;;;;;;;2070730;28;20386;-82
2021/09/09 06:09:59;;;;;;;9.55;7.32;;;;;;;;;;2078349;28;20491;-79
2021/09/09 06:11:17;;;;;;;12.73;7.78;;;;;;;;;;2075113;28;20077;-78
2021/09/09 06:12:36;;;;;;;8.63;7.82;;;;;;;;;;2074814;28;20026;-81
2021/09/09 06:13:55;;;;;;;8.43;7.50;;;;;;;;;;2066018;28;20033;-80
2021/09/09 06:15:14;;;;;;;11.00;7.30;;;;;;;;;;2072702;28;20026;-81
2021/09/09 06:16:33;;;;;;;9.30;7.18;;;;;;;;;;2075231;28;20163;-80
2021/09/09 06:17:52;;;;;;;8.80;7.65;;;;;;;;;;2070308;28;20023;-81
2021/09/09 06:19:11;;;;;;;9.07;7.60;;;;;;;;;;2076450;28;20037;-81
2021/09/09 06:20:30;;;;;;;9.00;8.10;;;;;;;;;;2075171;28;20463;-81
2021/09/09 06:21:49;;;;;;;9.95;7.45;;;;;;;;;;2069762;28;20034;-81
2021/09/09 06:23:07;;;;;;;10.02;7.55;;;;;;;;;;2074436;28;20065;-81
2021/09/09 06:24:26;;;;;;;11.65;7.55;;;;;;;;;;2079580;28;20029;-81
2021/09/09 06:25:45;;;;;;;8.55;7.07;;;;;;;;;;2078430;28;20077;-82
2021/09/09 06:27:04;;;;;;;10.40;8.05;;;;;;;;;;2079220;28;20026;-81
2021/09/09 06:28:24;;;;;;;10.15;8.13;;;;;;;;;;2078650;28;20409;-81
2021/09/09 06:29:43;;;;;;;8.18;7.15;;;;;;;;;;2078693;28;20025;-81
2021/09/09 06:31:04;;;;;;;10.25;7.70;;;;;;;;;;2072406;28;20533;-82
2021/09/09 06:32:24;;;;;;;8.60;7.20;;;;;;;;;;2079121;28;20035;-81
2021/09/09 06:33:43;;;;;;;9.02;7.85;;;;;;;;;;2079709;28;20021;-81
2021/09/09 06:35:04;;;;;;;8.98;7.65;;;;;;;;;;2074802;28;20112;-81
2021/09/09 06:36:23;;;;;;;11.20;7.75;;;;;;;;;;2083279;28;20032;-81
2021/09/09 06:37:42;;;;;;;12.18;8.35;;;;;;;;;;2081924;28;20025;-81
2021/09/09 06:39:02;;;;;;;10.18;8.07;;;;;;;;;;2084129;28;20025;-81
2021/09/09 06:40:21;;;;;;;8.85;7.93;;;;;;;;;;2075336;28;20026;-81
2021/09/09 06:41:44;;;;;;;9.13;7.75;;;;;;;;;;2087016;28;20464;-81
2021/09/09 06:43:03;;;;;;;13.50;8.30;;;;;;;;;;2079210;28;20465;-80
2021/09/09 06:44:22;;;;;;;9.55;8.50;;;;;;;;;;2075172;28;20033;-81
2021/09/09 06:45:41;;;;;;;15.73;8.68;;;;;;;;;;2083748;28;20025;-81
2021/09/09 06:47:00;;;;;;;20.52;9.82;;;;;;;;;;2077076;28;20116;-81
2021/09/09 06:48:18;;;;;;;13.38;8.57;;;;;;;;;;2086714;28;20403;-80
2021/09/09 06:49:37;;;;;;;16.05;9.32;;;;;;;;;;2084434;28;20121;-82
2021/09/09 06:50:56;;;;;;;11.80;9.20;;;;;;;;;;2080172;28;20027;-81
2021/09/09 06:52:16;;;;;;;10.18;8.55;;;;;;;;;;2081708;28;20029;-82
2021/09/09 06:53:34;;;;;;;10.10;8.07;;;;;;;;;;2080237;28;20021;-81
2021/09/09 06:54:53;;;;;;;15.10;9.40;;;;;;;;;;2080293;28;20033;-82
2021/09/09 06:56:12;;;;;;;11.90;8.88;;;;;;;;;;2081127;28;20421;-81
2021/09/09 06:57:31;;;;;;;11.85;9.65;;;;;;;;;;2084403;28;20025;-81
2021/09/09 06:58:50;;;;;;;14.45;9.88;;;;;;;;;;2081230;28;20025;-81
2021/09/09 07:00:09;;;;;;;12.52;9.80;;;;;;;;;;2077787;28;20466;-82
2021/09/09 07:01:28;;;;;;;14.18;10.10;;;;;;;;;;2086201;28;20033;-82
2021/09/09 07:02:47;;;;;;;10.57;9.25;;;;;;;;;;2085083;28;20481;-82
2021/09/09 07:04:06;;;;;;;14.52;9.30;;;;;;;;;;2083395;28;20506;-82
2021/09/09 07:05:25;;;;;;;13.45;9.23;;;;;;;;;;2081561;28;20033;-82
2021/09/09 07:06:44;;;;;;;13.00;9.07;;;;;;;;;;2088758;28;20489;-81
2021/09/09 07:08:03;;;;;;;12.43;9.75;;;;;;;;;;2087319;28;20033;-81
2021/09/09 07:09:21;;;;;;;14.25;9.98;;;;;;;;;;2073636;28;20072;-82
2021/09/09 07:10:40;;;;;;;10.82;8.77;;;;;;;;;;2079018;28;20033;-81
2021/09/09 07:12:00;;;;;;;10.07;8.98;;;;;;;;;;2078923;28;20034;-81
2021/09/09 07:13:20;;;;;;;11.07;9.50;;;;;;;;;;2079873;28;20021;-81
2021/09/09 07:14:39;;;;;;;11.27;9.52;;;;;;;;;;2078110;28;20105;-82
2021/09/09 07:15:59;;;;;;;14.57;9.93;;;;;;;;;;2078095;28;20485;-81
2021/09/09 07:17:18;;;;;;;13.88;9.30;;;;;;;;;;2077972;28;20110;-81
2021/09/09 07:18:37;;;;;;;14.63;10.27;;;;;;;;;;2074205;28;20025;-82
2021/09/09 07:19:55;;;;;;;12.05;10.18;;;;;;;;;;2080700;28;20017;-82
2021/09/09 07:21:14;;;;;;;13.55;9.43;;;;;;;;;;2079019;28;20477;-81
2021/09/09 07:22:33;;;;;;;13.57;9.68;;;;;;;;;;2081561;28;20491;-82
2021/09/09 07:23:52;;;;;;;14.80;9.30;;;;;;;;;;2082272;28;20468;-82
2021/09/09 07:25:11;;;;;;;10.70;9.52;;;;;;;;;;2079953;28;20471;-82
2021/09/09 07:26:30;;;;;;;10.13;8.98;;;;;;;;;;2079851;28;20440;-81
2021/09/09 07:27:49;;;;;;;10.52;9.45;;;;;;;;;;2083386;28;20513;-82
2021/09/09 07:29:08;;;;;;;11.48;9.48;;;;;;;;;;2094038;28;20084;-79
2021/09/09 07:30:27;;;;;;;10.88;9.32;;;;;;;;;;2080824;28;20478;-81
2021/09/09 07:31:46;;;;;;;12.48;9.35;;;;;;;;;;2079934;28;20026;-81
2021/09/09 07:33:05;;;;;;;12.70;9.48;;;;;;;;;;2081050;28;20025;-81
2021/09/09 07:34:25;;;;;;;10.73;8.90;;;;;;;;;;2073292;28;20025;-81
2021/09/09 07:35:45;;;;;;;13.18;9.55;;;;;;;;;;2083272;28;20017;-81
2021/09/09 07:37:04;;;;;;;12.88;8.75;;;;;;;;;;2080668;28;20018;-81
2021/09/09 07:38:23;;;;;;;10.55;8.80;;;;;;;;;;2079399;28;20438;-81
2021/09/09 07:39:42;;;;;;;12.63;8.30;;;;;;;;;;2083077;28;20025;-81
2021/09/09 07:41:02;;;;;;;11.93;8.23;;;;;;;;;;2077785;28;20029;-81
2021/09/09 07:42:20;;;;;;;10.63;8.93;;;;;;;;;;2077302;28;20030;-81
2021/09/09 07:43:39;;;;;;;11.45;8.75;;;;;;;;;;2078936;28;20033;-81
2021/09/09 07:44:58;;;;;;;10.88;8.98;;;;;;;;;;2079409;28;20028;-81
2021/09/09 07:46:17;;;;;;;9.77;8.32;;;;;;;;;;2079013;28;20017;-82
2021/09/09 07:47:35;;;;;;;10.90;8.82;;;;;;;;;;2085997;28;20070;-81
2021/09/09 07:48:54;;;;;;;11.77;9.40;;;;;;;;;;2082550;28;20021;-81
2021/09/09 07:50:13;;;;;;;11.27;8.75;;;;;;;;;;2081165;28;20038;-81
2021/09/09 07:51:32;;;;;;;11.18;8.38;;;;;;;;;;2081058;28;20030;-82
2021/09/09 07:52:51;;;;;;;10.82;9.23;;;;;;;;;;2075180;28;20101;-80
2021/09/09 07:54:09;;;;;;;8.98;8.07;;;;;;;;;;2076912;28;20029;-81
2021/09/09 07:55:28;;;;;;;10.60;8.70;;;;;;;;;;2082152;28;20029;-81